sensor_id;sensor_type;location;lat;lon;timestamp;P1;durP1;ratioP1;P2;durP2;ratioP2
6203;SDS011;3135;42.602;23.468;2023-02-28T00:00:47;20.30;;;9.60;;
6203;SDS011;3135;42.602;23.468;2023-02-28T00:03:13;22.73;;;9.20;;
6203;SDS011;3135;42.602;23.468;2023-02-28T00:05:38;22.88;;;8.90;;
6203;SDS011;3135;42.602;23.468;2023-02-28T00:08:04;23.85;;;9.30;;
6203;SDS011;3135;42.602;23.468;2023-02-28T00:10:30;23.05;;;9.50;;
6203;SDS011;3135;42.602;23.468;2023-02-28T00:12:59;24.43;;;9.40;;
6203;SDS011;3135;42.602;23.468;2023-02-28T00:15:27;24.38;;;9.98;;
6203;SDS011;3135;42.602;23.468;2023-02-28T00:17:53;21.10;;;8.60;;
6203;SDS011;3135;42.602;23.468;2023-02-28T00:20:19;20.03;;;8.80;;
6203;SDS011;3135;42.602;23.468;2023-02-28T00:22:46;21.55;;;8.55;;
6203;SDS011;3135;42.602;23.468;2023-02-28T00:25:15;22.40;;;9.15;;
6203;SDS011;3135;42.602;23.468;2023-02-28T00:27:42;21.05;;;9.10;;
6203;SDS011;3135;42.602;23.468;2023-02-28T00:30:08;20.37;;;9.17;;
6203;SDS011;3135;42.602;23.468;2023-02-28T00:32:38;18.65;;;8.68;;
6203;SDS011;3135;42.602;23.468;2023-02-28T00:35:05;22.23;;;10.07;;
6203;SDS011;3135;42.602;23.468;2023-02-28T00:37:31;19.83;;;9.23;;
6203;SDS011;3135;42.602;23.468;2023-02-28T00:39:57;21.02;;;10.40;;
6203;SDS011;3135;42.602;23.468;2023-02-28T00:42:22;20.20;;;9.57;;
6203;SDS011;3135;42.602;23.468;2023-02-28T00:44:48;18.57;;;9.10;;
6203;SDS011;3135;42.602;23.468;2023-02-28T00:47:13;20.50;;;9.03;;
6203;SDS011;3135;42.602;23.468;2023-02-28T00:49:39;19.08;;;8.50;;
6203;SDS011;3135;42.602;23.468;2023-02-28T00:52:05;22.33;;;9.85;;
6203;SDS011;3135;42.602;23.468;2023-02-28T00:54:30;26.90;;;10.03;;
6203;SDS011;3135;42.602;23.468;2023-02-28T00:56:56;19.17;;;8.23;;
6203;SDS011;3135;42.602;23.468;2023-02-28T00:59:21;19.87;;;8.50;;
6203;SDS011;3135;42.602;23.468;2023-02-28T01:01:47;17.43;;;7.37;;
6203;SDS011;3135;42.602;23.468;2023-02-28T01:04:12;19.17;;;8.20;;
6203;SDS011;3135;42.602;23.468;2023-02-28T01:06:39;12.80;;;6.50;;
6203;SDS011;3135;42.602;23.468;2023-02-28T01:09:05;16.38;;;6.57;;
6203;SDS011;3135;42.602;23.468;2023-02-28T01:11:31;8.90;;;4.82;;
6203;SDS011;3135;42.602;23.468;2023-02-28T01:13:58;13.82;;;6.45;;
6203;SDS011;3135;42.602;23.468;2023-02-28T01:16:24;12.85;;;5.70;;
6203;SDS011;3135;42.602;23.468;2023-02-28T01:18:50;8.67;;;4.37;;
6203;SDS011;3135;42.602;23.468;2023-02-28T01:21:16;9.13;;;5.30;;
6203;SDS011;3135;42.602;23.468;2023-02-28T01:23:44;8.40;;;4.53;;
6203;SDS011;3135;42.602;23.468;2023-02-28T01:26:12;12.82;;;5.32;;
6203;SDS011;3135;42.602;23.468;2023-02-28T01:28:39;11.35;;;5.70;;
6203;SDS011;3135;42.602;23.468;2023-02-28T01:31:05;14.90;;;6.15;;
6203;SDS011;3135;42.602;23.468;2023-02-28T01:33:31;9.13;;;5.27;;
6203;SDS011;3135;42.602;23.468;2023-02-28T01:36:08;10.10;;;3.97;;
6203;SDS011;3135;42.602;23.468;2023-02-28T01:38:38;4.78;;;2.83;;
6203;SDS011;3135;42.602;23.468;2023-02-28T01:41:05;5.18;;;2.70;;
6203;SDS011;3135;42.602;23.468;2023-02-28T01:43:35;4.32;;;2.92;;
6203;SDS011;3135;42.602;23.468;2023-02-28T01:46:24;5.85;;;2.95;;
6203;SDS011;3135;42.602;23.468;2023-02-28T01:51:40;5.25;;;2.95;;
6203;SDS011;3135;42.602;23.468;2023-02-28T01:54:25;3.85;;;2.55;;
6203;SDS011;3135;42.602;23.468;2023-02-28T01:56:54;5.07;;;3.40;;
6203;SDS011;3135;42.602;23.468;2023-02-28T01:59:27;5.50;;;2.83;;
6203;SDS011;3135;42.602;23.468;2023-02-28T02:01:59;6.38;;;3.83;;
6203;SDS011;3135;42.602;23.468;2023-02-28T02:04:26;8.77;;;5.70;;
6203;SDS011;3135;42.602;23.468;2023-02-28T02:06:57;49.20;;;20.58;;
6203;SDS011;3135;42.602;23.468;2023-02-28T02:09:23;14.30;;;6.57;;
6203;SDS011;3135;42.602;23.468;2023-02-28T02:11:49;6.93;;;4.18;;
6203;SDS011;3135;42.602;23.468;2023-02-28T02:26:12;5.18;;;2.20;;
6203;SDS011;3135;42.602;23.468;2023-02-28T02:29:06;5.35;;;2.35;;
6203;SDS011;3135;42.602;23.468;2023-02-28T02:37:50;2.95;;;2.20;;
6203;SDS011;3135;42.602;23.468;2023-02-28T02:40:20;6.72;;;4.53;;
6203;SDS011;3135;42.602;23.468;2023-02-28T02:42:56;8.07;;;4.50;;
6203;SDS011;3135;42.602;23.468;2023-02-28T02:45:38;3.75;;;2.50;;
6203;SDS011;3135;42.602;23.468;2023-02-28T02:48:10;4.82;;;3.30;;
6203;SDS011;3135;42.602;23.468;2023-02-28T02:50:42;12.15;;;5.07;;
6203;SDS011;3135;42.602;23.468;2023-02-28T02:53:11;19.40;;;7.47;;
6203;SDS011;3135;42.602;23.468;2023-02-28T02:55:40;21.92;;;9.13;;
6203;SDS011;3135;42.602;23.468;2023-02-28T02:58:18;27.23;;;9.90;;
6203;SDS011;3135;42.602;23.468;2023-02-28T03:00:50;27.70;;;9.65;;
6203;SDS011;3135;42.602;23.468;2023-02-28T03:03:23;26.80;;;9.70;;
6203;SDS011;3135;42.602;23.468;2023-02-28T03:05:54;28.73;;;10.50;;
6203;SDS011;3135;42.602;23.468;2023-02-28T03:08:22;32.28;;;9.90;;
6203;SDS011;3135;42.602;23.468;2023-02-28T03:10:57;27.20;;;9.37;;
6203;SDS011;3135;42.602;23.468;2023-02-28T03:21:56;23.67;;;9.15;;
6203;SDS011;3135;42.602;23.468;2023-02-28T03:24:29;19.02;;;7.53;;
6203;SDS011;3135;42.602;23.468;2023-02-28T03:27:04;22.38;;;8.65;;
6203;SDS011;3135;42.602;23.468;2023-02-28T03:29:50;23.45;;;7.30;;
6203;SDS011;3135;42.602;23.468;2023-02-28T03:35:01;14.93;;;6.47;;
6203;SDS011;3135;42.602;23.468;2023-02-28T03:37:29;17.30;;;7.00;;
6203;SDS011;3135;42.602;23.468;2023-02-28T03:40:14;14.25;;;5.88;;
6203;SDS011;3135;42.602;23.468;2023-02-28T03:42:45;18.38;;;7.22;;
6203;SDS011;3135;42.602;23.468;2023-02-28T03:45:18;18.25;;;7.60;;
6203;SDS011;3135;42.602;23.468;2023-02-28T03:47:58;12.30;;;6.22;;
6203;SDS011;3135;42.602;23.468;2023-02-28T03:50:37;18.20;;;10.07;;
6203;SDS011;3135;42.602;23.468;2023-02-28T03:53:07;12.10;;;6.72;;
6203;SDS011;3135;42.602;23.468;2023-02-28T03:55:49;8.85;;;5.20;;
6203;SDS011;3135;42.602;23.468;2023-02-28T03:58:21;9.10;;;5.05;;
6203;SDS011;3135;42.602;23.468;2023-02-28T04:00:49;18.30;;;5.95;;
6203;SDS011;3135;42.602;23.468;2023-02-28T04:03:20;50.13;;;7.72;;
6203;SDS011;3135;42.602;23.468;2023-02-28T04:05:52;22.63;;;6.83;;
6203;SDS011;3135;42.602;23.468;2023-02-28T04:08:20;25.45;;;6.95;;
6203;SDS011;3135;42.602;23.468;2023-02-28T04:10:47;32.80;;;6.70;;
6203;SDS011;3135;42.602;23.468;2023-02-28T04:13:18;29.27;;;6.05;;
6203;SDS011;3135;42.602;23.468;2023-02-28T04:15:43;19.48;;;9.20;;
6203;SDS011;3135;42.602;23.468;2023-02-28T04:18:09;29.30;;;12.80;;
6203;SDS011;3135;42.602;23.468;2023-02-28T04:20:34;48.50;;;7.70;;
6203;SDS011;3135;42.602;23.468;2023-02-28T04:22:59;28.43;;;7.10;;
6203;SDS011;3135;42.602;23.468;2023-02-28T04:25:25;19.60;;;7.60;;
6203;SDS011;3135;42.602;23.468;2023-02-28T04:27:50;20.40;;;9.20;;
6203;SDS011;3135;42.602;23.468;2023-02-28T04:30:16;23.43;;;9.53;;
6203;SDS011;3135;42.602;23.468;2023-02-28T04:32:41;12.77;;;6.63;;
6203;SDS011;3135;42.602;23.468;2023-02-28T04:35:07;14.43;;;7.80;;
6203;SDS011;3135;42.602;23.468;2023-02-28T04:37:32;14.02;;;5.72;;
6203;SDS011;3135;42.602;23.468;2023-02-28T04:40:00;10.43;;;5.47;;
6203;SDS011;3135;42.602;23.468;2023-02-28T04:42:26;10.20;;;5.28;;
6203;SDS011;3135;42.602;23.468;2023-02-28T04:44:51;10.13;;;5.43;;
6203;SDS011;3135;42.602;23.468;2023-02-28T04:47:17;17.93;;;8.23;;
6203;SDS011;3135;42.602;23.468;2023-02-28T04:49:42;81.05;;;28.55;;
6203;SDS011;3135;42.602;23.468;2023-02-28T04:52:08;77.93;;;27.42;;
6203;SDS011;3135;42.602;23.468;2023-02-28T04:54:35;15.60;;;6.78;;
6203;SDS011;3135;42.602;23.468;2023-02-28T04:57:00;24.43;;;11.17;;
6203;SDS011;3135;42.602;23.468;2023-02-28T04:59:26;19.63;;;8.27;;
6203;SDS011;3135;42.602;23.468;2023-02-28T05:01:52;11.23;;;5.27;;
6203;SDS011;3135;42.602;23.468;2023-02-28T05:04:17;10.63;;;4.97;;
6203;SDS011;3135;42.602;23.468;2023-02-28T05:06:43;9.90;;;5.23;;
6203;SDS011;3135;42.602;23.468;2023-02-28T05:09:08;10.37;;;5.80;;
6203;SDS011;3135;42.602;23.468;2023-02-28T05:11:36;13.57;;;7.82;;
6203;SDS011;3135;42.602;23.468;2023-02-28T05:14:04;21.15;;;10.50;;
6203;SDS011;3135;42.602;23.468;2023-02-28T05:16:31;21.10;;;10.43;;
6203;SDS011;3135;42.602;23.468;2023-02-28T05:18:57;13.50;;;7.32;;
6203;SDS011;3135;42.602;23.468;2023-02-28T05:21:33;10.90;;;5.43;;
6203;SDS011;3135;42.602;23.468;2023-02-28T05:24:01;11.90;;;6.55;;
6203;SDS011;3135;42.602;23.468;2023-02-28T05:26:38;12.18;;;6.60;;
6203;SDS011;3135;42.602;23.468;2023-02-28T05:29:07;10.55;;;5.68;;
6203;SDS011;3135;42.602;23.468;2023-02-28T05:31:34;10.45;;;5.70;;
6203;SDS011;3135;42.602;23.468;2023-02-28T05:34:00;9.07;;;5.78;;
6203;SDS011;3135;42.602;23.468;2023-02-28T05:36:25;7.77;;;5.37;;
6203;SDS011;3135;42.602;23.468;2023-02-28T05:38:51;18.70;;;9.10;;
6203;SDS011;3135;42.602;23.468;2023-02-28T05:41:17;26.60;;;12.38;;
6203;SDS011;3135;42.602;23.468;2023-02-28T05:43:44;25.15;;;11.25;;
6203;SDS011;3135;42.602;23.468;2023-02-28T05:46:10;24.00;;;9.32;;
6203;SDS011;3135;42.602;23.468;2023-02-28T05:48:37;18.70;;;8.68;;
6203;SDS011;3135;42.602;23.468;2023-02-28T05:51:04;26.70;;;10.40;;
6203;SDS011;3135;42.602;23.468;2023-02-28T05:53:30;26.05;;;12.20;;
6203;SDS011;3135;42.602;23.468;2023-02-28T05:55:56;28.05;;;11.75;;
6203;SDS011;3135;42.602;23.468;2023-02-28T05:58:22;28.45;;;11.68;;
6203;SDS011;3135;42.602;23.468;2023-02-28T06:00:48;26.42;;;10.90;;
6203;SDS011;3135;42.602;23.468;2023-02-28T06:03:14;25.30;;;11.20;;
6203;SDS011;3135;42.602;23.468;2023-02-28T06:05:39;27.07;;;12.23;;
6203;SDS011;3135;42.602;23.468;2023-02-28T06:08:05;24.07;;;11.47;;
6203;SDS011;3135;42.602;23.468;2023-02-28T06:10:33;22.05;;;9.25;;
6203;SDS011;3135;42.602;23.468;2023-02-28T06:13:00;32.92;;;12.60;;
6203;SDS011;3135;42.602;23.468;2023-02-28T06:15:27;33.57;;;13.47;;
6203;SDS011;3135;42.602;23.468;2023-02-28T06:17:53;32.83;;;15.82;;
6203;SDS011;3135;42.602;23.468;2023-02-28T06:20:18;34.50;;;15.13;;
6203;SDS011;3135;42.602;23.468;2023-02-28T06:22:44;36.70;;;13.73;;
6203;SDS011;3135;42.602;23.468;2023-02-28T06:25:09;40.30;;;15.60;;
6203;SDS011;3135;42.602;23.468;2023-02-28T06:27:35;40.15;;;14.73;;
6203;SDS011;3135;42.602;23.468;2023-02-28T06:30:01;31.87;;;13.57;;
6203;SDS011;3135;42.602;23.468;2023-02-28T06:32:26;32.50;;;13.03;;
6203;SDS011;3135;42.602;23.468;2023-02-28T06:34:52;31.10;;;11.07;;
6203;SDS011;3135;42.602;23.468;2023-02-28T06:37:18;34.20;;;14.07;;
6203;SDS011;3135;42.602;23.468;2023-02-28T06:39:44;38.40;;;15.80;;
6203;SDS011;3135;42.602;23.468;2023-02-28T06:42:09;44.93;;;16.87;;
6203;SDS011;3135;42.602;23.468;2023-02-28T06:44:35;43.80;;;15.93;;
6203;SDS011;3135;42.602;23.468;2023-02-28T06:47:04;45.50;;;17.03;;
6203;SDS011;3135;42.602;23.468;2023-02-28T06:49:31;43.85;;;15.15;;
6203;SDS011;3135;42.602;23.468;2023-02-28T06:51:58;38.78;;;14.95;;
6203;SDS011;3135;42.602;23.468;2023-02-28T06:54:23;39.77;;;15.87;;
6203;SDS011;3135;42.602;23.468;2023-02-28T06:56:49;44.92;;;16.73;;
6203;SDS011;3135;42.602;23.468;2023-02-28T06:59:15;46.78;;;17.52;;
6203;SDS011;3135;42.602;23.468;2023-02-28T07:01:41;43.83;;;17.85;;
6203;SDS011;3135;42.602;23.468;2023-02-28T07:04:06;41.00;;;17.48;;
6203;SDS011;3135;42.602;23.468;2023-02-28T07:06:32;36.67;;;14.15;;
6203;SDS011;3135;42.602;23.468;2023-02-28T07:08:58;35.35;;;13.63;;
6203;SDS011;3135;42.602;23.468;2023-02-28T07:11:24;33.20;;;13.15;;
6203;SDS011;3135;42.602;23.468;2023-02-28T07:13:52;33.22;;;12.07;;
6203;SDS011;3135;42.602;23.468;2023-02-28T07:16:18;30.93;;;13.33;;
6203;SDS011;3135;42.602;23.468;2023-02-28T07:18:44;35.13;;;13.48;;
6203;SDS011;3135;42.602;23.468;2023-02-28T07:21:09;36.80;;;13.27;;
6203;SDS011;3135;42.602;23.468;2023-02-28T07:23:35;32.88;;;12.98;;
6203;SDS011;3135;42.602;23.468;2023-02-28T07:26:03;30.05;;;12.70;;
6203;SDS011;3135;42.602;23.468;2023-02-28T07:28:29;43.03;;;15.50;;
6203;SDS011;3135;42.602;23.468;2023-02-28T07:30:54;34.77;;;15.00;;
6203;SDS011;3135;42.602;23.468;2023-02-28T07:33:20;46.00;;;16.73;;
6203;SDS011;3135;42.602;23.468;2023-02-28T07:35:45;40.57;;;16.33;;
6203;SDS011;3135;42.602;23.468;2023-02-28T07:38:11;45.93;;;18.73;;
6203;SDS011;3135;42.602;23.468;2023-02-28T07:40:38;41.83;;;16.93;;
6203;SDS011;3135;42.602;23.468;2023-02-28T07:43:04;41.65;;;16.65;;
6203;SDS011;3135;42.602;23.468;2023-02-28T07:45:29;45.33;;;17.53;;
6203;SDS011;3135;42.602;23.468;2023-02-28T07:47:56;34.95;;;14.23;;
6203;SDS011;3135;42.602;23.468;2023-02-28T07:50:22;47.97;;;18.23;;
6203;SDS011;3135;42.602;23.468;2023-02-28T07:52:48;47.08;;;16.58;;
6203;SDS011;3135;42.602;23.468;2023-02-28T07:55:13;41.13;;;16.53;;
6203;SDS011;3135;42.602;23.468;2023-02-28T07:57:39;42.03;;;16.03;;
6203;SDS011;3135;42.602;23.468;2023-02-28T08:00:06;28.77;;;10.45;;
6203;SDS011;3135;42.602;23.468;2023-02-28T08:02:36;37.55;;;12.98;;
6203;SDS011;3135;42.602;23.468;2023-02-28T08:05:01;33.83;;;12.70;;
6203;SDS011;3135;42.602;23.468;2023-02-28T08:07:27;28.50;;;10.25;;
6203;SDS011;3135;42.602;23.468;2023-02-28T08:09:52;26.48;;;10.60;;
6203;SDS011;3135;42.602;23.468;2023-02-28T08:12:18;27.63;;;10.05;;
6203;SDS011;3135;42.602;23.468;2023-02-28T08:14:43;23.13;;;9.43;;
6203;SDS011;3135;42.602;23.468;2023-02-28T08:17:09;23.00;;;8.97;;
6203;SDS011;3135;42.602;23.468;2023-02-28T08:19:35;26.25;;;8.90;;
6203;SDS011;3135;42.602;23.468;2023-02-28T08:22:01;22.33;;;7.57;;
6203;SDS011;3135;42.602;23.468;2023-02-28T08:24:27;24.30;;;8.63;;
6203;SDS011;3135;42.602;23.468;2023-02-28T08:26:52;19.63;;;8.13;;
6203;SDS011;3135;42.602;23.468;2023-02-28T08:29:17;23.60;;;9.60;;
6203;SDS011;3135;42.602;23.468;2023-02-28T08:31:43;21.53;;;7.47;;
6203;SDS011;3135;42.602;23.468;2023-02-28T08:34:09;23.27;;;7.80;;
6203;SDS011;3135;42.602;23.468;2023-02-28T08:36:36;18.47;;;7.47;;
6203;SDS011;3135;42.602;23.468;2023-02-28T08:39:02;18.83;;;8.20;;
6203;SDS011;3135;42.602;23.468;2023-02-28T08:41:28;24.92;;;11.23;;
6203;SDS011;3135;42.602;23.468;2023-02-28T08:43:54;22.03;;;7.60;;
6203;SDS011;3135;42.602;23.468;2023-02-28T08:46:20;25.53;;;7.40;;
6203;SDS011;3135;42.602;23.468;2023-02-28T08:48:46;17.65;;;6.90;;
6203;SDS011;3135;42.602;23.468;2023-02-28T08:51:13;19.43;;;7.20;;
6203;SDS011;3135;42.602;23.468;2023-02-28T08:53:44;19.10;;;7.23;;
6203;SDS011;3135;42.602;23.468;2023-02-28T08:56:14;22.43;;;8.00;;
6203;SDS011;3135;42.602;23.468;2023-02-28T08:58:41;22.35;;;7.00;;
6203;SDS011;3135;42.602;23.468;2023-02-28T09:01:08;22.58;;;7.57;;
6203;SDS011;3135;42.602;23.468;2023-02-28T09:03:38;21.17;;;7.07;;
6203;SDS011;3135;42.602;23.468;2023-02-28T09:06:04;24.52;;;6.90;;
6203;SDS011;3135;42.602;23.468;2023-02-28T09:08:30;20.57;;;7.03;;
6203;SDS011;3135;42.602;23.468;2023-02-28T09:10:56;20.80;;;7.68;;
6203;SDS011;3135;42.602;23.468;2023-02-28T09:13:23;26.60;;;9.33;;
6203;SDS011;3135;42.602;23.468;2023-02-28T09:15:50;23.40;;;7.85;;
6203;SDS011;3135;42.602;23.468;2023-02-28T09:18:15;20.93;;;6.83;;
6203;SDS011;3135;42.602;23.468;2023-02-28T09:20:41;22.95;;;7.20;;
6203;SDS011;3135;42.602;23.468;2023-02-28T09:23:09;21.02;;;7.10;;
6203;SDS011;3135;42.602;23.468;2023-02-28T09:25:35;23.80;;;7.25;;
6203;SDS011;3135;42.602;23.468;2023-02-28T09:28:03;23.08;;;6.88;;
6203;SDS011;3135;42.602;23.468;2023-02-28T09:30:29;23.70;;;6.60;;
6203;SDS011;3135;42.602;23.468;2023-02-28T09:32:55;18.90;;;6.68;;
6203;SDS011;3135;42.602;23.468;2023-02-28T09:35:23;26.02;;;8.30;;
6203;SDS011;3135;42.602;23.468;2023-02-28T09:37:49;26.52;;;8.35;;
6203;SDS011;3135;42.602;23.468;2023-02-28T09:40:20;26.05;;;8.57;;
6203;SDS011;3135;42.602;23.468;2023-02-28T09:42:49;18.05;;;6.90;;
6203;SDS011;3135;42.602;23.468;2023-02-28T09:45:24;19.90;;;6.88;;
6203;SDS011;3135;42.602;23.468;2023-02-28T09:47:56;21.75;;;7.28;;
6203;SDS011;3135;42.602;23.468;2023-02-28T09:53:02;19.25;;;6.88;;
6203;SDS011;3135;42.602;23.468;2023-02-28T09:55:45;17.50;;;6.70;;
6203;SDS011;3135;42.602;23.468;2023-02-28T09:58:20;20.33;;;7.43;;
6203;SDS011;3135;42.602;23.468;2023-02-28T10:01:01;18.10;;;6.63;;
6203;SDS011;3135;42.602;23.468;2023-02-28T10:03:36;20.23;;;7.45;;
6203;SDS011;3135;42.602;23.468;2023-02-28T10:08:42;15.63;;;6.68;;
6203;SDS011;3135;42.602;23.468;2023-02-28T10:11:17;19.05;;;7.13;;
6203;SDS011;3135;42.602;23.468;2023-02-28T10:16:20;23.33;;;6.88;;
6203;SDS011;3135;42.602;23.468;2023-02-28T10:18:51;19.40;;;6.95;;
6203;SDS011;3135;42.602;23.468;2023-02-28T10:21:33;23.73;;;7.82;;
6203;SDS011;3135;42.602;23.468;2023-02-28T10:24:11;22.90;;;7.57;;
6203;SDS011;3135;42.602;23.468;2023-02-28T10:26:39;22.03;;;7.57;;
6203;SDS011;3135;42.602;23.468;2023-02-28T10:29:10;20.20;;;6.83;;
6203;SDS011;3135;42.602;23.468;2023-02-28T10:31:35;21.15;;;8.10;;
6203;SDS011;3135;42.602;23.468;2023-02-28T10:34:01;22.60;;;7.30;;
6203;SDS011;3135;42.602;23.468;2023-02-28T10:36:28;18.57;;;7.37;;
6203;SDS011;3135;42.602;23.468;2023-02-28T10:38:54;17.38;;;7.53;;
6203;SDS011;3135;42.602;23.468;2023-02-28T10:41:27;22.42;;;7.47;;
6203;SDS011;3135;42.602;23.468;2023-02-28T10:44:40;21.67;;;7.75;;
6203;SDS011;3135;42.602;23.468;2023-02-28T10:46:48;22.80;;;8.88;;
6203;SDS011;3135;42.602;23.468;2023-02-28T10:49:17;24.83;;;8.43;;
6203;SDS011;3135;42.602;23.468;2023-02-28T10:51:47;20.50;;;7.78;;
6203;SDS011;3135;42.602;23.468;2023-02-28T10:54:36;21.92;;;8.40;;
6203;SDS011;3135;42.602;23.468;2023-02-28T10:57:07;25.63;;;9.55;;
6203;SDS011;3135;42.602;23.468;2023-02-28T10:59:39;24.30;;;8.75;;
6203;SDS011;3135;42.602;23.468;2023-02-28T11:02:28;23.63;;;9.17;;
6203;SDS011;3135;42.602;23.468;2023-02-28T11:05:23;29.98;;;11.85;;
6203;SDS011;3135;42.602;23.468;2023-02-28T11:07:52;28.33;;;10.55;;
6203;SDS011;3135;42.602;23.468;2023-02-28T11:10:20;24.55;;;8.98;;
6203;SDS011;3135;42.602;23.468;2023-02-28T11:12:53;34.13;;;11.68;;
6203;SDS011;3135;42.602;23.468;2023-02-28T11:18:00;27.48;;;9.48;;
6203;SDS011;3135;42.602;23.468;2023-02-28T11:20:32;29.27;;;10.52;;
6203;SDS011;3135;42.602;23.468;2023-02-28T11:23:00;27.80;;;10.15;;
6203;SDS011;3135;42.602;23.468;2023-02-28T11:25:35;24.98;;;9.63;;
6203;SDS011;3135;42.602;23.468;2023-02-28T11:28:08;24.50;;;9.05;;
6203;SDS011;3135;42.602;23.468;2023-02-28T11:30:59;26.67;;;10.10;;
6203;SDS011;3135;42.602;23.468;2023-02-28T11:33:48;23.75;;;9.15;;
6203;SDS011;3135;42.602;23.468;2023-02-28T11:38:47;21.75;;;8.52;;
6203;SDS011;3135;42.602;23.468;2023-02-28T11:43:51;25.63;;;8.95;;
6203;SDS011;3135;42.602;23.468;2023-02-28T11:46:44;17.95;;;8.15;;
6203;SDS011;3135;42.602;23.468;2023-02-28T11:51:57;24.27;;;8.87;;
6203;SDS011;3135;42.602;23.468;2023-02-28T11:54:24;22.13;;;8.48;;
6203;SDS011;3135;42.602;23.468;2023-02-28T12:00:11;21.10;;;7.97;;
6203;SDS011;3135;42.602;23.468;2023-02-28T12:05:44;19.88;;;7.80;;
6203;SDS011;3135;42.602;23.468;2023-02-28T12:13:48;22.63;;;8.90;;
6203;SDS011;3135;42.602;23.468;2023-02-28T12:21:22;22.00;;;8.30;;
6203;SDS011;3135;42.602;23.468;2023-02-28T12:26:53;20.55;;;8.60;;
6203;SDS011;3135;42.602;23.468;2023-02-28T12:29:26;17.23;;;7.43;;
6203;SDS011;3135;42.602;23.468;2023-02-28T12:34:33;17.48;;;7.15;;
6203;SDS011;3135;42.602;23.468;2023-02-28T12:37:04;20.00;;;7.20;;
6203;SDS011;3135;42.602;23.468;2023-02-28T12:39:35;17.65;;;7.32;;
6203;SDS011;3135;42.602;23.468;2023-02-28T12:42:08;18.50;;;7.05;;
6203;SDS011;3135;42.602;23.468;2023-02-28T12:44:44;17.98;;;7.75;;
6203;SDS011;3135;42.602;23.468;2023-02-28T12:47:23;20.55;;;7.18;;
6203;SDS011;3135;42.602;23.468;2023-02-28T12:49:50;21.05;;;7.63;;
6203;SDS011;3135;42.602;23.468;2023-02-28T12:58:05;20.25;;;7.80;;
6203;SDS011;3135;42.602;23.468;2023-02-28T13:03:44;16.73;;;7.32;;
6203;SDS011;3135;42.602;23.468;2023-02-28T13:11:45;20.90;;;8.13;;
6203;SDS011;3135;42.602;23.468;2023-02-28T13:14:16;20.52;;;7.93;;
6203;SDS011;3135;42.602;23.468;2023-02-28T13:22:13;18.67;;;8.00;;
6203;SDS011;3135;42.602;23.468;2023-02-28T13:24:49;18.75;;;6.70;;
6203;SDS011;3135;42.602;23.468;2023-02-28T13:27:24;16.92;;;7.32;;
6203;SDS011;3135;42.602;23.468;2023-02-28T13:30:00;21.13;;;7.67;;
6203;SDS011;3135;42.602;23.468;2023-02-28T13:32:46;18.25;;;7.70;;
6203;SDS011;3135;42.602;23.468;2023-02-28T13:35:13;19.65;;;8.30;;
6203;SDS011;3135;42.602;23.468;2023-02-28T13:37:43;19.40;;;7.32;;
6203;SDS011;3135;42.602;23.468;2023-02-28T13:47:36;21.40;;;8.47;;
6203;SDS011;3135;42.602;23.468;2023-02-28T13:50:22;19.63;;;6.88;;
6203;SDS011;3135;42.602;23.468;2023-02-28T14:03:41;17.90;;;5.93;;
6203;SDS011;3135;42.602;23.468;2023-02-28T14:11:38;12.65;;;5.65;;
6203;SDS011;3135;42.602;23.468;2023-02-28T14:14:07;18.92;;;5.97;;
6203;SDS011;3135;42.602;23.468;2023-02-28T14:16:40;13.40;;;5.75;;
6203;SDS011;3135;42.602;23.468;2023-02-28T14:19:12;17.17;;;5.50;;
6203;SDS011;3135;42.602;23.468;2023-02-28T14:27:48;13.50;;;5.10;;
6203;SDS011;3135;42.602;23.468;2023-02-28T14:33:19;14.10;;;5.53;;
6203;SDS011;3135;42.602;23.468;2023-02-28T14:38:27;14.90;;;5.40;;
6203;SDS011;3135;42.602;23.468;2023-02-28T14:40:58;14.60;;;5.67;;
6203;SDS011;3135;42.602;23.468;2023-02-28T14:43:26;12.17;;;5.73;;
6203;SDS011;3135;42.602;23.468;2023-02-28T14:46:02;12.82;;;5.00;;
6203;SDS011;3135;42.602;23.468;2023-02-28T14:48:32;10.00;;;5.35;;
6203;SDS011;3135;42.602;23.468;2023-02-28T14:51:00;10.38;;;4.75;;
6203;SDS011;3135;42.602;23.468;2023-02-28T14:53:27;12.45;;;5.20;;
6203;SDS011;3135;42.602;23.468;2023-02-28T14:55:54;9.90;;;4.85;;
6203;SDS011;3135;42.602;23.468;2023-02-28T14:58:30;12.17;;;4.70;;
6203;SDS011;3135;42.602;23.468;2023-02-28T15:00:59;10.50;;;4.53;;
6203;SDS011;3135;42.602;23.468;2023-02-28T15:06:04;9.77;;;4.25;;
6203;SDS011;3135;42.602;23.468;2023-02-28T15:08:31;12.48;;;4.75;;
6203;SDS011;3135;42.602;23.468;2023-02-28T15:11:02;10.63;;;4.43;;
6203;SDS011;3135;42.602;23.468;2023-02-28T15:13:44;11.25;;;4.65;;
6203;SDS011;3135;42.602;23.468;2023-02-28T15:18:49;9.70;;;4.22;;
6203;SDS011;3135;42.602;23.468;2023-02-28T15:21:23;9.90;;;4.50;;
6203;SDS011;3135;42.602;23.468;2023-02-28T15:23:54;10.73;;;4.22;;
6203;SDS011;3135;42.602;23.468;2023-02-28T15:26:25;8.15;;;3.65;;
6203;SDS011;3135;42.602;23.468;2023-02-28T15:28:59;8.48;;;4.45;;
6203;SDS011;3135;42.602;23.468;2023-02-28T15:31:27;10.88;;;6.28;;
6203;SDS011;3135;42.602;23.468;2023-02-28T15:34:02;8.37;;;3.97;;
6203;SDS011;3135;42.602;23.468;2023-02-28T15:36:30;9.85;;;4.00;;
6203;SDS011;3135;42.602;23.468;2023-02-28T15:39:02;6.90;;;3.55;;
6203;SDS011;3135;42.602;23.468;2023-02-28T15:41:29;6.45;;;3.88;;
6203;SDS011;3135;42.602;23.468;2023-02-28T15:46:43;7.28;;;3.88;;
6203;SDS011;3135;42.602;23.468;2023-02-28T15:49:19;6.68;;;3.50;;
6203;SDS011;3135;42.602;23.468;2023-02-28T15:51:46;7.68;;;3.88;;
6203;SDS011;3135;42.602;23.468;2023-02-28T15:54:19;6.97;;;3.67;;
6203;SDS011;3135;42.602;23.468;2023-02-28T15:56:53;10.77;;;4.78;;
6203;SDS011;3135;42.602;23.468;2023-02-28T15:59:22;18.08;;;6.65;;
6203;SDS011;3135;42.602;23.468;2023-02-28T16:02:02;8.82;;;4.07;;
6203;SDS011;3135;42.602;23.468;2023-02-28T16:04:36;10.50;;;5.20;;
6203;SDS011;3135;42.602;23.468;2023-02-28T16:07:05;24.95;;;9.77;;
6203;SDS011;3135;42.602;23.468;2023-02-28T16:09:37;35.28;;;13.63;;
6203;SDS011;3135;42.602;23.468;2023-02-28T16:12:03;28.57;;;13.50;;
6203;SDS011;3135;42.602;23.468;2023-02-28T16:14:30;29.25;;;12.00;;
6203;SDS011;3135;42.602;23.468;2023-02-28T16:16:57;27.60;;;11.83;;
6203;SDS011;3135;42.602;23.468;2023-02-28T16:19:29;29.27;;;13.50;;
6203;SDS011;3135;42.602;23.468;2023-02-28T16:21:54;27.00;;;12.23;;
6203;SDS011;3135;42.602;23.468;2023-02-28T16:24:20;34.58;;;13.57;;
6203;SDS011;3135;42.602;23.468;2023-02-28T16:26:46;18.53;;;9.90;;
6203;SDS011;3135;42.602;23.468;2023-02-28T16:29:19;31.33;;;12.90;;
6203;SDS011;3135;42.602;23.468;2023-02-28T16:31:49;46.85;;;18.90;;
6203;SDS011;3135;42.602;23.468;2023-02-28T16:34:14;49.57;;;18.43;;
6203;SDS011;3135;42.602;23.468;2023-02-28T16:36:40;106.70;;;35.10;;
6203;SDS011;3135;42.602;23.468;2023-02-28T16:39:06;85.57;;;29.43;;
6203;SDS011;3135;42.602;23.468;2023-02-28T16:41:31;34.80;;;14.50;;
6203;SDS011;3135;42.602;23.468;2023-02-28T16:43:58;35.28;;;15.52;;
6203;SDS011;3135;42.602;23.468;2023-02-28T16:46:27;31.92;;;12.45;;
6203;SDS011;3135;42.602;23.468;2023-02-28T16:48:59;30.48;;;13.27;;
6203;SDS011;3135;42.602;23.468;2023-02-28T16:51:25;20.60;;;10.52;;
6203;SDS011;3135;42.602;23.468;2023-02-28T16:53:50;24.43;;;11.27;;
6203;SDS011;3135;42.602;23.468;2023-02-28T16:56:17;20.90;;;10.00;;
6203;SDS011;3135;42.602;23.468;2023-02-28T16:58:45;21.80;;;9.77;;
6203;SDS011;3135;42.602;23.468;2023-02-28T17:01:11;20.02;;;8.80;;
6203;SDS011;3135;42.602;23.468;2023-02-28T17:03:37;16.80;;;7.20;;
6203;SDS011;3135;42.602;23.468;2023-02-28T17:06:03;24.13;;;9.43;;
6203;SDS011;3135;42.602;23.468;2023-02-28T17:08:30;48.05;;;16.60;;
6203;SDS011;3135;42.602;23.468;2023-02-28T17:10:57;43.35;;;15.68;;
6203;SDS011;3135;42.602;23.468;2023-02-28T17:13:23;21.08;;;8.93;;